sensor_id;sensor_type;location;lat;lon;timestamp;pressure;altitude;pressure_sealevel;temperature;humidity
43804;BME280;29430;52.924;-2.388;2023-04-22T00:04:03;98480.06;;;6.97;98.50
43804;BME280;29430;52.924;-2.388;2023-04-22T00:08:55;98468.91;;;6.94;98.59
43804;BME280;29430;52.924;-2.388;2023-04-22T00:13:47;98473.91;;;6.90;98.69
43804;BME280;29430;52.924;-2.388;2023-04-22T00:18:38;98464.63;;;6.86;98.26
43804;BME280;29430;52.924;-2.388;2023-04-22T00:23:31;98453.09;;;6.79;98.74
43804;BME280;29430;52.924;-2.388;2023-04-22T00:28:22;98458.94;;;6.76;99.42
43804;BME280;29430;52.924;-2.388;2023-04-22T00:33:14;98455.44;;;6.75;99.54
43804;BME280;29430;52.924;-2.388;2023-04-22T00:38:06;98439.09;;;6.70;99.39
43804;BME280;29430;52.924;-2.388;2023-04-22T00:42:58;98440.75;;;6.71;99.09
43804;BME280;29430;52.924;-2.388;2023-04-22T00:47:51;98442.84;;;6.69;98.38
43804;BME280;29430;52.924;-2.388;2023-04-22T00:52:43;98437.06;;;6.66;97.97
43804;BME280;29430;52.924;-2.388;2023-04-22T00:57:35;98431.91;;;6.64;97.60
43804;BME280;29430;52.924;-2.388;2023-04-22T01:02:27;98429.66;;;6.61;97.06
43804;BME280;29430;52.924;-2.388;2023-04-22T01:07:20;98440.28;;;6.56;96.64
43804;BME280;29430;52.924;-2.388;2023-04-22T01:12:12;98439.97;;;6.45;96.22
43804;BME280;29430;52.924;-2.388;2023-04-22T01:17:03;98421.78;;;6.41;96.17
43804;BME280;29430;52.924;-2.388;2023-04-22T01:21:56;98408.41;;;6.34;95.50
43804;BME280;29430;52.924;-2.388;2023-04-22T01:26:48;98406.38;;;6.30;95.43
43804;BME280;29430;52.924;-2.388;2023-04-22T01:31:40;98396.28;;;6.25;95.54
43804;BME280;29430;52.924;-2.388;2023-04-22T01:36:32;98389.91;;;6.19;96.10
43804;BME280;29430;52.924;-2.388;2023-04-22T01:41:24;98388.31;;;6.12;95.70
43804;BME280;29430;52.924;-2.388;2023-04-22T01:46:16;98383.38;;;6.08;96.53
43804;BME280;29430;52.924;-2.388;2023-04-22T01:51:08;98380.91;;;6.07;96.08
43804;BME280;29430;52.924;-2.388;2023-04-22T01:56:00;98385.47;;;6.06;95.74
43804;BME280;29430;52.924;-2.388;2023-04-22T02:00:52;98390.41;;;6.09;96.64
43804;BME280;29430;52.924;-2.388;2023-04-22T02:05:44;98365.50;;;6.14;96.29
43804;BME280;29430;52.924;-2.388;2023-04-22T02:10:35;98358.03;;;6.16;97.03
43804;BME280;29430;52.924;-2.388;2023-04-22T02:15:27;98367.31;;;6.20;96.89
43804;BME280;29430;52.924;-2.388;2023-04-22T02:20:19;98372.03;;;6.25;97.64
43804;BME280;29430;52.924;-2.388;2023-04-22T02:25:10;98365.31;;;6.34;98.33
43804;BME280;29430;52.924;-2.388;2023-04-22T02:30:03;98349.06;;;6.41;97.56
43804;BME280;29430;52.924;-2.388;2023-04-22T02:34:54;98338.00;;;6.49;97.53
43804;BME280;29430;52.924;-2.388;2023-04-22T02:39:46;98336.88;;;6.57;97.43
43804;BME280;29430;52.924;-2.388;2023-04-22T02:44:38;98337.25;;;6.60;98.71
43804;BME280;29430;52.924;-2.388;2023-04-22T02:49:29;98316.66;;;6.66;98.61
43804;BME280;29430;52.924;-2.388;2023-04-22T02:54:21;98314.34;;;6.70;98.82
43804;BME280;29430;52.924;-2.388;2023-04-22T02:59:13;98312.00;;;6.73;99.18
43804;BME280;29430;52.924;-2.388;2023-04-22T03:04:05;98298.06;;;6.76;98.84
43804;BME280;29430;52.924;-2.388;2023-04-22T03:08:56;98303.22;;;6.78;98.52
43804;BME280;29430;52.924;-2.388;2023-04-22T03:13:48;98293.88;;;6.80;98.54
43804;BME280;29430;52.924;-2.388;2023-04-22T03:18:40;98283.44;;;6.84;98.37
43804;BME280;29430;52.924;-2.388;2023-04-22T03:23:31;98276.44;;;6.83;98.40
43804;BME280;29430;52.924;-2.388;2023-04-22T03:28:24;98271.41;;;6.87;99.08
43804;BME280;29430;52.924;-2.388;2023-04-22T03:33:15;98243.41;;;6.88;98.58
43804;BME280;29430;52.924;-2.388;2023-04-22T03:38:07;98246.69;;;6.90;98.16
43804;BME280;29430;52.924;-2.388;2023-04-22T03:42:59;98233.56;;;6.93;97.93
43804;BME280;29430;52.924;-2.388;2023-04-22T03:47:50;98229.00;;;6.94;97.94
43804;BME280;29430;52.924;-2.388;2023-04-22T03:52:42;98221.75;;;6.94;97.93
43804;BME280;29430;52.924;-2.388;2023-04-22T03:57:34;98215.53;;;6.94;97.30
43804;BME280;29430;52.924;-2.388;2023-04-22T04:02:26;98216.47;;;6.88;97.68
43804;BME280;29430;52.924;-2.388;2023-04-22T04:07:18;98218.31;;;6.87;97.95
43804;BME280;29430;52.924;-2.388;2023-04-22T04:12:09;98200.13;;;6.82;98.41
43804;BME280;29430;52.924;-2.388;2023-04-22T04:17:01;98199.91;;;6.84;98.55
43804;BME280;29430;52.924;-2.388;2023-04-22T04:21:54;98197.22;;;6.84;98.02
43804;BME280;29430;52.924;-2.388;2023-04-22T04:26:46;98191.81;;;6.84;97.83
43804;BME280;29430;52.924;-2.388;2023-04-22T04:31:37;98176.13;;;6.81;98.14
43804;BME280;29430;52.924;-2.388;2023-04-22T04:36:29;98176.34;;;6.79;97.53
43804;BME280;29430;52.924;-2.388;2023-04-22T04:41:23;98176.56;;;6.78;97.31
43804;BME280;29430;52.924;-2.388;2023-04-22T04:46:17;98166.25;;;6.75;97.35
43804;BME280;29430;52.924;-2.388;2023-04-22T04:51:11;98161.34;;;6.72;96.68
43804;BME280;29430;52.924;-2.388;2023-04-22T04:56:03;98156.66;;;6.67;96.78
43804;BME280;29430;52.924;-2.388;2023-04-22T05:00:55;98165.06;;;6.59;96.47
43804;BME280;29430;52.924;-2.388;2023-04-22T05:05:46;98166.09;;;6.58;96.65
43804;BME280;29430;52.924;-2.388;2023-04-22T05:10:39;98162.03;;;6.55;97.43
43804;BME280;29430;52.924;-2.388;2023-04-22T05:15:32;98162.84;;;6.56;96.72
43804;BME280;29430;52.924;-2.388;2023-04-22T05:20:24;98159.31;;;6.55;97.63
43804;BME280;29430;52.924;-2.388;2023-04-22T05:25:16;98167.75;;;6.59;97.49
43804;BME280;29430;52.924;-2.388;2023-04-22T05:30:08;98156.97;;;6.59;97.43
43804;BME280;29430;52.924;-2.388;2023-04-22T05:35:01;98164.84;;;6.60;97.42
43804;BME280;29430;52.924;-2.388;2023-04-22T05:39:53;98169.41;;;6.60;98.09
43804;BME280;29430;52.924;-2.388;2023-04-22T05:44:45;98155.78;;;6.55;99.34
43804;BME280;29430;52.924;-2.388;2023-04-22T05:49:36;98149.94;;;6.58;99.74
43804;BME280;29430;52.924;-2.388;2023-04-22T05:54:28;98145.53;;;6.63;99.97
43804;BME280;29430;52.924;-2.388;2023-04-22T05:59:20;98145.09;;;6.78;100.00
43804;BME280;29430;52.924;-2.388;2023-04-22T06:04:12;98144.06;;;7.03;100.00
43804;BME280;29430;52.924;-2.388;2023-04-22T06:09:04;98159.06;;;7.46;100.00
43804;BME280;29430;52.924;-2.388;2023-04-22T06:13:57;98159.34;;;7.74;97.24
43804;BME280;29430;52.924;-2.388;2023-04-22T06:18:49;98146.66;;;7.86;96.21
43804;BME280;29430;52.924;-2.388;2023-04-22T06:23:41;98151.63;;;8.06;95.53
43804;BME280;29430;52.924;-2.388;2023-04-22T06:28:33;98126.81;;;8.50;94.64
43804;BME280;29430;52.924;-2.388;2023-04-22T06:33:25;98121.50;;;9.06;92.02
43804;BME280;29430;52.924;-2.388;2023-04-22T06:38:17;98121.66;;;9.55;87.95
43804;BME280;29430;52.924;-2.388;2023-04-22T06:43:08;98120.91;;;10.04;86.85
43804;BME280;29430;52.924;-2.388;2023-04-22T06:48:00;98121.75;;;10.59;84.11
43804;BME280;29430;52.924;-2.388;2023-04-22T06:52:53;98111.88;;;11.13;81.66
43804;BME280;29430;52.924;-2.388;2023-04-22T06:57:44;98118.44;;;11.75;77.68
43804;BME280;29430;52.924;-2.388;2023-04-22T07:02:36;98122.75;;;12.29;75.13
43804;BME280;29430;52.924;-2.388;2023-04-22T07:07:28;98117.63;;;12.79;71.13
43804;BME280;29430;52.924;-2.388;2023-04-22T07:12:20;98121.69;;;13.17;69.88
43804;BME280;29430;52.924;-2.388;2023-04-22T07:17:11;98111.00;;;13.67;67.56
43804;BME280;29430;52.924;-2.388;2023-04-22T07:22:03;98116.47;;;14.27;64.86
43804;BME280;29430;52.924;-2.388;2023-04-22T07:26:55;98113.97;;;14.76;63.55
43804;BME280;29430;52.924;-2.388;2023-04-22T07:31:47;98121.00;;;15.16;62.94
43804;BME280;29430;52.924;-2.388;2023-04-22T07:36:39;98110.94;;;15.12;60.52
43804;BME280;29430;52.924;-2.388;2023-04-22T07:41:30;98115.94;;;15.34;60.36
43804;BME280;29430;52.924;-2.388;2023-04-22T07:46:22;98102.94;;;15.74;61.57
43804;BME280;29430;52.924;-2.388;2023-04-22T07:51:14;98102.16;;;15.92;58.30
43804;BME280;29430;52.924;-2.388;2023-04-22T07:56:05;98103.50;;;15.95;58.93
43804;BME280;29430;52.924;-2.388;2023-04-22T08:00:57;98102.34;;;16.01;55.75
43804;BME280;29430;52.924;-2.388;2023-04-22T08:05:49;98098.63;;;15.92;56.93
43804;BME280;29430;52.924;-2.388;2023-04-22T08:10:40;98098.25;;;15.99;59.97
43804;BME280;29430;52.924;-2.388;2023-04-22T08:15:32;98092.81;;;16.56;57.13
43804;BME280;29430;52.924;-2.388;2023-04-22T08:20:24;98086.00;;;17.05;54.87
43804;BME280;29430;52.924;-2.388;2023-04-22T08:25:16;98085.38;;;17.41;51.93
43804;BME280;29430;52.924;-2.388;2023-04-22T08:30:08;98083.66;;;18.01;51.72
43804;BME280;29430;52.924;-2.388;2023-04-22T08:35:00;98081.38;;;18.31;49.55
43804;BME280;29430;52.924;-2.388;2023-04-22T08:39:55;98080.13;;;18.37;49.52
43804;BME280;29430;52.924;-2.388;2023-04-22T08:44:47;98081.28;;;18.22;47.83
43804;BME280;29430;52.924;-2.388;2023-04-22T08:49:39;98092.16;;;17.85;47.96
43804;BME280;29430;52.924;-2.388;2023-04-22T08:54:31;98080.25;;;17.21;49.22
43804;BME280;29430;52.924;-2.388;2023-04-22T08:59:24;98077.41;;;16.60;50.20
43804;BME280;29430;52.924;-2.388;2023-04-22T09:04:17;98076.84;;;16.06;51.47
43804;BME280;29430;52.924;-2.388;2023-04-22T09:09:09;98066.09;;;15.90;55.33
43804;BME280;29430;52.924;-2.388;2023-04-22T09:14:04;98056.81;;;16.81;54.71
43804;BME280;29430;52.924;-2.388;2023-04-22T09:18:56;98049.44;;;17.57;51.60
43804;BME280;29430;52.924;-2.388;2023-04-22T09:23:51;98049.94;;;18.00;50.02
43804;BME280;29430;52.924;-2.388;2023-04-22T09:28:54;98055.97;;;18.25;47.98
43804;BME280;29430;52.924;-2.388;2023-04-22T09:33:56;98059.38;;;17.94;47.07
43804;BME280;29430;52.924;-2.388;2023-04-22T09:39:00;98059.56;;;17.42;49.19
43804;BME280;29430;52.924;-2.388;2023-04-22T09:43:54;98056.03;;;17.42;50.87
43804;BME280;29430;52.924;-2.388;2023-04-22T09:48:48;98043.91;;;18.12;50.13
43804;BME280;29430;52.924;-2.388;2023-04-22T09:53:40;98036.63;;;18.30;44.91
43804;BME280;29430;52.924;-2.388;2023-04-22T09:58:38;98052.88;;;17.76;45.88
43804;BME280;29430;52.924;-2.388;2023-04-22T10:03:30;98041.53;;;18.19;47.98
43804;BME280;29430;52.924;-2.388;2023-04-22T10:08:22;98040.41;;;19.02;46.25
43804;BME280;29430;52.924;-2.388;2023-04-22T10:13:14;98037.47;;;18.99;44.30
43804;BME280;29430;52.924;-2.388;2023-04-22T10:18:09;98048.81;;;19.06;43.66
43804;BME280;29430;52.924;-2.388;2023-04-22T10:23:03;98031.94;;;18.90;43.89
43804;BME280;29430;52.924;-2.388;2023-04-22T10:28:06;98033.34;;;18.65;44.10
43804;BME280;29430;52.924;-2.388;2023-04-22T10:38:18;98028.75;;;18.15;44.67
43804;BME280;29430;52.924;-2.388;2023-04-22T10:43:11;98030.22;;;17.98;44.30
43804;BME280;29430;52.924;-2.388;2023-04-22T10:48:03;98028.78;;;17.87;44.60
43804;BME280;29430;52.924;-2.388;2023-04-22T10:52:59;98035.22;;;17.68;43.54
43804;BME280;29430;52.924;-2.388;2023-04-22T10:57:53;98032.47;;;17.41;45.73
43804;BME280;29430;52.924;-2.388;2023-04-22T11:02:46;98040.91;;;17.16;44.92
43804;BME280;29430;52.924;-2.388;2023-04-22T11:07:41;98027.78;;;16.80;46.01
43804;BME280;29430;52.924;-2.388;2023-04-22T11:17:33;98031.44;;;16.43;48.47
43804;BME280;29430;52.924;-2.388;2023-04-22T11:22:25;98022.94;;;16.44;47.81
43804;BME280;29430;52.924;-2.388;2023-04-22T11:27:17;98032.91;;;16.35;47.97
43804;BME280;29430;52.924;-2.388;2023-04-22T11:32:16;98033.00;;;16.30;48.60
43804;BME280;29430;52.924;-2.388;2023-04-22T11:37:07;98028.06;;;16.13;48.25
43804;BME280;29430;52.924;-2.388;2023-04-22T11:41:59;98022.44;;;16.04;49.25
43804;BME280;29430;52.924;-2.388;2023-04-22T11:46:51;98020.75;;;16.08;48.90
43804;BME280;29430;52.924;-2.388;2023-04-22T11:51:53;98017.78;;;16.05;47.18
43804;BME280;29430;52.924;-2.388;2023-04-22T11:56:47;98021.53;;;16.09;45.52
43804;BME280;29430;52.924;-2.388;2023-04-22T12:01:40;98010.41;;;16.05;46.36
43804;BME280;29430;52.924;-2.388;2023-04-22T12:06:32;98002.56;;;16.18;45.28
43804;BME280;29430;52.924;-2.388;2023-04-22T12:11:24;98002.38;;;16.28;46.24
43804;BME280;29430;52.924;-2.388;2023-04-22T12:16:19;98003.72;;;16.31;45.78
43804;BME280;29430;52.924;-2.388;2023-04-22T12:21:12;97998.75;;;16.52;45.79
43804;BME280;29430;52.924;-2.388;2023-04-22T12:26:04;98005.25;;;16.70;45.82
43804;BME280;29430;52.924;-2.388;2023-04-22T12:30:56;97998.78;;;16.65;43.78
43804;BME280;29430;52.924;-2.388;2023-04-22T12:35:47;98009.19;;;16.63;43.54
43804;BME280;29430;52.924;-2.388;2023-04-22T12:40:42;98014.38;;;16.65;43.31
43804;BME280;29430;52.924;-2.388;2023-04-22T12:45:34;98007.50;;;16.68;42.21
43804;BME280;29430;52.924;-2.388;2023-04-22T12:50:26;98018.25;;;16.45;43.21
43804;BME280;29430;52.924;-2.388;2023-04-22T12:55:18;98014.72;;;16.44;43.60
43804;BME280;29430;52.924;-2.388;2023-04-22T13:00:11;98009.56;;;16.24;44.04
43804;BME280;29430;52.924;-2.388;2023-04-22T13:05:06;98013.63;;;16.26;43.52
43804;BME280;29430;52.924;-2.388;2023-04-22T13:09:59;98013.63;;;16.26;44.59
43804;BME280;29430;52.924;-2.388;2023-04-22T13:14:50;97997.34;;;16.35;43.90
43804;BME280;29430;52.924;-2.388;2023-04-22T13:19:42;98005.50;;;16.21;45.63
43804;BME280;29430;52.924;-2.388;2023-04-22T13:24:34;98003.56;;;16.22;45.09
43804;BME280;29430;52.924;-2.388;2023-04-22T13:29:26;98000.53;;;16.23;45.05
43804;BME280;29430;52.924;-2.388;2023-04-22T13:34:17;97991.19;;;16.43;43.87
43804;BME280;29430;52.924;-2.388;2023-04-22T13:39:09;98003.88;;;16.39;43.46
43804;BME280;29430;52.924;-2.388;2023-04-22T13:44:01;97994.34;;;16.18;43.77
43804;BME280;29430;52.924;-2.388;2023-04-22T13:48:54;98000.63;;;15.99;43.23
43804;BME280;29430;52.924;-2.388;2023-04-22T13:53:47;97999.34;;;15.72;43.99
43804;BME280;29430;52.924;-2.388;2023-04-22T13:58:39;97998.72;;;15.56;44.55
43804;BME280;29430;52.924;-2.388;2023-04-22T14:03:31;97997.63;;;15.33;46.39
43804;BME280;29430;52.924;-2.388;2023-04-22T14:08:23;98001.09;;;15.20;46.01
43804;BME280;29430;52.924;-2.388;2023-04-22T14:13:15;97989.97;;;15.11;46.50
43804;BME280;29430;52.924;-2.388;2023-04-22T14:18:06;97991.63;;;15.12;47.57
43804;BME280;29430;52.924;-2.388;2023-04-22T14:22:58;97987.75;;;15.13;47.33
43804;BME280;29430;52.924;-2.388;2023-04-22T14:27:51;97990.84;;;15.07;47.47
43804;BME280;29430;52.924;-2.388;2023-04-22T14:32:42;97990.44;;;14.94;47.59
43804;BME280;29430;52.924;-2.388;2023-04-22T14:37:34;97994.97;;;14.80;47.99
43804;BME280;29430;52.924;-2.388;2023-04-22T14:42:26;97989.28;;;14.71;49.00
43804;BME280;29430;52.924;-2.388;2023-04-22T14:47:18;97980.59;;;14.69;48.27
43804;BME280;29430;52.924;-2.388;2023-04-22T14:52:10;97978.38;;;14.71;48.04
43804;BME280;29430;52.924;-2.388;2023-04-22T14:57:01;97976.56;;;14.91;46.91
43804;BME280;29430;52.924;-2.388;2023-04-22T15:01:55;97972.50;;;15.12;46.17
43804;BME280;29430;52.924;-2.388;2023-04-22T15:06:47;97980.03;;;15.20;45.52
43804;BME280;29430;52.924;-2.388;2023-04-22T15:11:39;97977.09;;;15.17;45.09
43804;BME280;29430;52.924;-2.388;2023-04-22T15:16:31;97974.97;;;15.09;43.79
43804;BME280;29430;52.924;-2.388;2023-04-22T15:21:23;97964.63;;;15.06;46.27
43804;BME280;29430;52.924;-2.388;2023-04-22T15:26:14;97964.00;;;15.14;45.23
43804;BME280;29430;52.924;-2.388;2023-04-22T15:31:06;97965.63;;;15.15;46.10
43804;BME280;29430;52.924;-2.388;2023-04-22T15:35:58;97958.78;;;15.17;45.14
43804;BME280;29430;52.924;-2.388;2023-04-22T15:40:50;97964.81;;;15.14;46.35
43804;BME280;29430;52.924;-2.388;2023-04-22T15:45:41;97975.03;;;15.03;45.04
43804;BME280;29430;52.924;-2.388;2023-04-22T15:50:33;97959.41;;;14.85;45.31
43804;BME280;29430;52.924;-2.388;2023-04-22T15:55:25;97962.38;;;14.89;46.99
43804;BME280;29430;52.924;-2.388;2023-04-22T16:00:17;97965.97;;;14.84;45.75
43804;BME280;29430;52.924;-2.388;2023-04-22T16:05:09;97955.16;;;14.74;45.64
43804;BME280;29430;52.924;-2.388;2023-04-22T16:10:02;97951.56;;;14.78;46.75
43804;BME280;29430;52.924;-2.388;2023-04-22T16:14:54;97963.59;;;14.77;44.79
43804;BME280;29430;52.924;-2.388;2023-04-22T16:19:46;97953.63;;;14.62;46.02
43804;BME280;29430;52.924;-2.388;2023-04-22T16:24:38;97947.41;;;14.51;46.62
43804;BME280;29430;52.924;-2.388;2023-04-22T16:29:32;97954.59;;;14.42;46.33
43804;BME280;29430;52.924;-2.388;2023-04-22T16:34:23;97953.28;;;14.35;45.84
43804;BME280;29430;52.924;-2.388;2023-04-22T16:39:15;97951.69;;;14.33;47.04
43804;BME280;29430;52.924;-2.388;2023-04-22T16:44:08;97951.16;;;14.31;47.19
43804;BME280;29430;52.924;-2.388;2023-04-22T16:48:59;97948.41;;;14.31;47.13
43804;BME280;29430;52.924;-2.388;2023-04-22T16:53:51;97942.78;;;14.23;47.45
43804;BME280;29430;52.924;-2.388;2023-04-22T16:58:43;97939.78;;;14.24;47.62
43804;BME280;29430;52.924;-2.388;2023-04-22T17:03:35;97930.44;;;14.30;47.63
43804;BME280;29430;52.924;-2.388;2023-04-22T17:08:26;97930.72;;;14.29;47.37
43804;BME280;29430;52.924;-2.388;2023-04-22T17:13:19;97923.16;;;14.21;47.14
43804;BME280;29430;52.924;-2.388;2023-04-22T17:18:11;97924.72;;;14.27;46.36
43804;BME280;29430;52.924;-2.388;2023-04-22T17:23:04;97920.41;;;14.21;45.90
43804;BME280;29430;52.924;-2.388;2023-04-22T17:27:56;97921.00;;;14.18;44.34
43804;BME280;29430;52.924;-2.388;2023-04-22T17:32:48;97919.47;;;14.06;44.34
43804;BME280;29430;52.924;-2.388;2023-04-22T17:37:40;97907.88;;;13.90;45.61
43804;BME280;29430;52.924;-2.388;2023-04-22T17:42:31;97911.69;;;13.89;46.13
43804;BME280;29430;52.924;-2.388;2023-04-22T17:47:36;97910.72;;;13.75;46.72
43804;BME280;29430;52.924;-2.388;2023-04-22T17:52:28;97902.88;;;13.63;47.44
43804;BME280;29430;52.924;-2.388;2023-04-22T17:57:19;97906.22;;;13.55;48.26
43804;BME280;29430;52.924;-2.388;2023-04-22T18:02:11;97898.88;;;13.45;48.54
43804;BME280;29430;52.924;-2.388;2023-04-22T18:07:03;97899.25;;;13.33;49.61
43804;BME280;29430;52.924;-2.388;2023-04-22T18:11:55;97898.41;;;13.28;50.27
43804;BME280;29430;52.924;-2.388;2023-04-22T18:16:49;97906.06;;;13.20;50.85
43804;BME280;29430;52.924;-2.388;2023-04-22T18:21:41;97896.03;;;13.16;51.33
43804;BME280;29430;52.924;-2.388;2023-04-22T18:26:50;97896.63;;;13.07;51.90
43804;BME280;29430;52.924;-2.388;2023-04-22T18:31:43;97892.03;;;12.93;52.54
43804;BME280;29430;52.924;-2.388;2023-04-22T18:36:34;97896.16;;;12.85;52.66
43804;BME280;29430;52.924;-2.388;2023-04-22T18:41:26;97893.97;;;12.87;53.48
43804;BME280;29430;52.924;-2.388;2023-04-22T18:46:18;97889.88;;;12.89;53.67
43804;BME280;29430;52.924;-2.388;2023-04-22T18:51:09;97887.72;;;12.86;53.47
43804;BME280;29430;52.924;-2.388;2023-04-22T18:56:01;97889.38;;;12.77;54.16
43804;BME280;29430;52.924;-2.388;2023-04-22T19:00:53;97899.44;;;12.77;54.19
43804;BME280;29430;52.924;-2.388;2023-04-22T19:05:45;97890.75;;;12.69;53.46
43804;BME280;29430;52.924;-2.388;2023-04-22T19:10:36;97884.00;;;12.57;54.30
43804;BME280;29430;52.924;-2.388;2023-04-22T19:15:28;97886.72;;;12.57;54.71
43804;BME280;29430;52.924;-2.388;2023-04-22T19:20:20;97892.47;;;12.50;54.84
43804;BME280;29430;52.924;-2.388;2023-04-22T19:25:12;97884.31;;;12.40;56.03
43804;BME280;29430;52.924;-2.388;2023-04-22T19:30:05;97882.97;;;12.42;56.49
43804;BME280;29430;52.924;-2.388;2023-04-22T19:34:57;97876.41;;;12.43;58.18
43804;BME280;29430;52.924;-2.388;2023-04-22T19:39:48;97884.56;;;12.53;58.77
43804;BME280;29430;52.924;-2.388;2023-04-22T19:44:40;97884.53;;;12.59;59.69
43804;BME280;29430;52.924;-2.388;2023-04-22T19:49:37;97879.09;;;12.59;61.77
43804;BME280;29430;52.924;-2.388;2023-04-22T19:54:29;97886.97;;;12.60;64.22
43804;BME280;29430;52.924;-2.388;2023-04-22T19:59:22;97892.69;;;12.59;65.17
43804;BME280;29430;52.924;-2.388;2023-04-22T20:04:14;97900.06;;;12.53;66.25
43804;BME280;29430;52.924;-2.388;2023-04-22T20:09:06;97909.84;;;12.49;67.03
43804;BME280;29430;52.924;-2.388;2023-04-22T20:14:01;97911.22;;;12.41;68.04
43804;BME280;29430;52.924;-2.388;2023-04-22T20:18:53;97903.38;;;12.14;67.88
43804;BME280;29430;52.924;-2.388;2023-04-22T20:23:46;97911.50;;;11.78;69.72
43804;BME280;29430;52.924;-2.388;2023-04-22T20:28:46;97912.28;;;11.58;72.38
43804;BME280;29430;52.924;-2.388;2023-04-22T20:33:38;97903.25;;;11.32;73.58
43804;BME280;29430;52.924;-2.388;2023-04-22T20:38:31;97899.97;;;11.19;76.11
43804;BME280;29430;52.924;-2.388;2023-04-22T20:43:27;97901.34;;;11.22;75.74
43804;BME280;29430;52.924;-2.388;2023-04-22T20:48:18;97888.84;;;11.26;77.04
43804;BME280;29430;52.924;-2.388;2023-04-22T20:53:10;97889.97;;;11.30;75.76
43804;BME280;29430;52.924;-2.388;2023-04-22T20:58:02;97880.75;;;11.31;76.79
43804;BME280;29430;52.924;-2.388;2023-04-22T21:02:54;97888.03;;;11.25;77.11
43804;BME280;29430;52.924;-2.388;2023-04-22T21:07:50;97886.94;;;11.11;77.22
43804;BME280;29430;52.924;-2.388;2023-04-22T21:12:42;97881.13;;;10.92;77.72
43804;BME280;29430;52.924;-2.388;2023-04-22T21:17:36;97879.22;;;10.82;78.83
43804;BME280;29430;52.924;-2.388;2023-04-22T21:22:31;97878.63;;;10.70;80.17
43804;BME280;29430;52.924;-2.388;2023-04-22T21:27:23;97873.97;;;10.65;80.56
43804;BME280;29430;52.924;-2.388;2023-04-22T21:32:15;97865.84;;;10.65;80.39
43804;BME280;29430;52.924;-2.388;2023-04-22T21:37:07;97868.53;;;10.60;80.65
43804;BME280;29430;52.924;-2.388;2023-04-22T21:41:59;97853.34;;;10.59;81.29
43804;BME280;29430;52.924;-2.388;2023-04-22T21:46:52;97859.91;;;10.68;82.12
43804;BME280;29430;52.924;-2.388;2023-04-22T21:51:44;97853.69;;;10.73;81.77
43804;BME280;29430;52.924;-2.388;2023-04-22T21:56:36;97856.41;;;10.73;81.33
43804;BME280;29430;52.924;-2.388;2023-04-22T22:01:28;97843.09;;;10.71;81.54
43804;BME280;29430;52.924;-2.388;2023-04-22T22:06:19;97844.75;;;10.72;80.68
43804;BME280;29430;52.924;-2.388;2023-04-22T22:11:11;97836.56;;;10.67;81.96
43804;BME280;29430;52.924;-2.388;2023-04-22T22:16:20;97840.66;;;10.65;82.59
43804;BME280;29430;52.924;-2.388;2023-04-22T22:21:12;97830.59;;;10.60;82.17
43804;BME280;29430;52.924;-2.388;2023-04-22T22:26:03;97825.38;;;10.48;83.46
43804;BME280;29430;52.924;-2.388;2023-04-22T22:30:56;97830.50;;;10.39;84.26
43804;BME280;29430;52.924;-2.388;2023-04-22T22:35:52;97821.47;;;10.29;86.08
43804;BME280;29430;52.924;-2.388;2023-04-22T22:40:44;97810.03;;;10.21;85.43
43804;BME280;29430;52.924;-2.388;2023-04-22T22:45:36;97811.63;;;10.17;86.42
43804;BME280;29430;52.924;-2.388;2023-04-22T22:50:27;97815.41;;;10.11;85.96
43804;BME280;29430;52.924;-2.388;2023-04-22T22:55:19;97803.72;;;10.06;86.78
43804;BME280;29430;52.924;-2.388;2023-04-22T23:00:12;97811.28;;;10.03;87.39
43804;BME280;29430;52.924;-2.388;2023-04-22T23:05:05;97805.31;;;10.01;87.53
43804;BME280;29430;52.924;-2.388;2023-04-22T23:10:01;97793.09;;;9.94;88.40
43804;BME280;29430;52.924;-2.388;2023-04-22T23:14:52;97799.28;;;9.89;88.29
43804;BME280;29430;52.924;-2.388;2023-04-22T23:19:44;97797.09;;;9.86;88.95
43804;BME280;29430;52.924;-2.388;2023-04-22T23:24:37;97783.56;;;9.86;89.05
43804;BME280;29430;52.924;-2.388;2023-04-22T23:29:30;97782.50;;;9.87;89.39
43804;BME280;29430;52.924;-2.388;2023-04-22T23:34:22;97786.28;;;9.86;89.41
43804;BME280;29430;52.924;-2.388;2023-04-22T23:39:14;97776.50;;;9.85;89.67
43804;BME280;29430;52.924;-2.388;2023-04-22T23:44:06;97761.03;;;9.80;89.30
43804;BME280;29430;52.924;-2.388;2023-04-22T23:48:57;97759.13;;;9.76;90.17
43804;BME280;29430;52.924;-2.388;2023-04-22T23:53:49;97755.25;;;9.66;90.86
43804;BME280;29430;52.924;-2.388;2023-04-22T23:58:41;97759.59;;;9.62;90.96
